sensor_id;sensor_type;location;lat;lon;timestamp;P1;durP1;ratioP1;P2;durP2;ratioP2
18072;SDS011;9161;47.348;9.648;2022-12-19T00:04:37;64.57;;;23.73;;
18072;SDS011;9161;47.348;9.648;2022-12-19T00:09:22;66.47;;;23.40;;
18072;SDS011;9161;47.348;9.648;2022-12-19T00:14:06;65.63;;;22.67;;
18072;SDS011;9161;47.348;9.648;2022-12-19T00:18:51;67.83;;;23.10;;
18072;SDS011;9161;47.348;9.648;2022-12-19T00:23:38;61.37;;;21.70;;
18072;SDS011;9161;47.348;9.648;2022-12-19T00:28:23;63.40;;;22.97;;
18072;SDS011;9161;47.348;9.648;2022-12-19T00:33:07;61.77;;;21.97;;
18072;SDS011;9161;47.348;9.648;2022-12-19T00:37:51;64.13;;;21.43;;
18072;SDS011;9161;47.348;9.648;2022-12-19T00:42:34;64.73;;;22.67;;
18072;SDS011;9161;47.348;9.648;2022-12-19T00:47:19;59.83;;;21.20;;
18072;SDS011;9161;47.348;9.648;2022-12-19T00:52:03;62.30;;;21.63;;
18072;SDS011;9161;47.348;9.648;2022-12-19T00:56:46;64.33;;;22.20;;
18072;SDS011;9161;47.348;9.648;2022-12-19T01:01:30;62.67;;;22.07;;
18072;SDS011;9161;47.348;9.648;2022-12-19T01:06:17;67.60;;;22.13;;
18072;SDS011;9161;47.348;9.648;2022-12-19T01:11:02;72.50;;;23.27;;
18072;SDS011;9161;47.348;9.648;2022-12-19T01:15:46;64.90;;;21.53;;
18072;SDS011;9161;47.348;9.648;2022-12-19T01:20:30;67.60;;;22.90;;
18072;SDS011;9161;47.348;9.648;2022-12-19T01:25:15;69.50;;;23.20;;
18072;SDS011;9161;47.348;9.648;2022-12-19T01:29:59;77.07;;;24.07;;
18072;SDS011;9161;47.348;9.648;2022-12-19T01:34:42;64.37;;;23.30;;
18072;SDS011;9161;47.348;9.648;2022-12-19T01:39:26;75.67;;;24.67;;
18072;SDS011;9161;47.348;9.648;2022-12-19T01:44:14;77.97;;;27.67;;
18072;SDS011;9161;47.348;9.648;2022-12-19T01:48:58;72.87;;;24.80;;
18072;SDS011;9161;47.348;9.648;2022-12-19T01:53:43;74.33;;;25.13;;
18072;SDS011;9161;47.348;9.648;2022-12-19T01:58:30;69.37;;;24.23;;
18072;SDS011;9161;47.348;9.648;2022-12-19T02:03:18;80.00;;;26.00;;
18072;SDS011;9161;47.348;9.648;2022-12-19T02:08:05;79.80;;;26.57;;
18072;SDS011;9161;47.348;9.648;2022-12-19T02:12:49;73.87;;;25.33;;
18072;SDS011;9161;47.348;9.648;2022-12-19T02:17:35;85.17;;;27.00;;
18072;SDS011;9161;47.348;9.648;2022-12-19T02:22:32;78.23;;;25.40;;
18072;SDS011;9161;47.348;9.648;2022-12-19T02:27:29;80.73;;;24.63;;
18072;SDS011;9161;47.348;9.648;2022-12-19T02:32:36;79.20;;;24.53;;
18072;SDS011;9161;47.348;9.648;2022-12-19T02:37:29;68.67;;;24.17;;
18072;SDS011;9161;47.348;9.648;2022-12-19T02:42:18;80.07;;;25.30;;
18072;SDS011;9161;47.348;9.648;2022-12-19T02:47:08;76.73;;;24.87;;
18072;SDS011;9161;47.348;9.648;2022-12-19T02:51:54;79.73;;;26.73;;
18072;SDS011;9161;47.348;9.648;2022-12-19T02:56:39;74.77;;;26.13;;
18072;SDS011;9161;47.348;9.648;2022-12-19T03:01:34;72.23;;;24.13;;
18072;SDS011;9161;47.348;9.648;2022-12-19T03:06:28;82.93;;;24.30;;
18072;SDS011;9161;47.348;9.648;2022-12-19T03:11:19;75.37;;;25.93;;
18072;SDS011;9161;47.348;9.648;2022-12-19T03:16:05;73.83;;;24.03;;
18072;SDS011;9161;47.348;9.648;2022-12-19T03:20:53;73.60;;;24.73;;
18072;SDS011;9161;47.348;9.648;2022-12-19T03:25:44;83.27;;;27.23;;
18072;SDS011;9161;47.348;9.648;2022-12-19T03:30:33;71.20;;;24.47;;
18072;SDS011;9161;47.348;9.648;2022-12-19T03:35:19;63.00;;;21.47;;
18072;SDS011;9161;47.348;9.648;2022-12-19T03:40:12;64.73;;;21.93;;
18072;SDS011;9161;47.348;9.648;2022-12-19T03:44:58;67.17;;;22.37;;
18072;SDS011;9161;47.348;9.648;2022-12-19T03:49:45;65.13;;;21.77;;
18072;SDS011;9161;47.348;9.648;2022-12-19T03:54:30;65.57;;;22.13;;
18072;SDS011;9161;47.348;9.648;2022-12-19T03:59:21;68.83;;;23.07;;
18072;SDS011;9161;47.348;9.648;2022-12-19T04:04:13;71.47;;;24.27;;
18072;SDS011;9161;47.348;9.648;2022-12-19T04:08:59;67.40;;;23.80;;
18072;SDS011;9161;47.348;9.648;2022-12-19T04:13:43;74.17;;;25.57;;
18072;SDS011;9161;47.348;9.648;2022-12-19T04:18:31;69.10;;;23.80;;
18072;SDS011;9161;47.348;9.648;2022-12-19T04:23:19;73.33;;;24.50;;
18072;SDS011;9161;47.348;9.648;2022-12-19T04:28:08;70.53;;;22.83;;
18072;SDS011;9161;47.348;9.648;2022-12-19T04:32:56;63.67;;;22.77;;
18072;SDS011;9161;47.348;9.648;2022-12-19T04:37:40;74.10;;;25.00;;
18072;SDS011;9161;47.348;9.648;2022-12-19T04:42:23;62.23;;;22.47;;
18072;SDS011;9161;47.348;9.648;2022-12-19T04:47:08;65.67;;;21.60;;
18072;SDS011;9161;47.348;9.648;2022-12-19T04:51:52;67.40;;;22.67;;
18072;SDS011;9161;47.348;9.648;2022-12-19T04:56:36;66.90;;;22.30;;
18072;SDS011;9161;47.348;9.648;2022-12-19T05:01:19;63.17;;;21.57;;
18072;SDS011;9161;47.348;9.648;2022-12-19T05:06:06;66.57;;;23.20;;
18072;SDS011;9161;47.348;9.648;2022-12-19T05:10:51;63.80;;;22.40;;
18072;SDS011;9161;47.348;9.648;2022-12-19T05:15:34;55.03;;;21.53;;
18072;SDS011;9161;47.348;9.648;2022-12-19T05:20:18;60.87;;;21.87;;
18072;SDS011;9161;47.348;9.648;2022-12-19T05:25:04;59.63;;;21.43;;
18072;SDS011;9161;47.348;9.648;2022-12-19T05:29:48;66.20;;;21.13;;
18072;SDS011;9161;47.348;9.648;2022-12-19T05:34:32;60.30;;;21.27;;
18072;SDS011;9161;47.348;9.648;2022-12-19T05:39:16;99.23;;;33.00;;
18072;SDS011;9161;47.348;9.648;2022-12-19T05:44:02;57.80;;;20.77;;
18072;SDS011;9161;47.348;9.648;2022-12-19T05:48:45;51.97;;;19.67;;
18072;SDS011;9161;47.348;9.648;2022-12-19T05:53:30;61.17;;;22.17;;
18072;SDS011;9161;47.348;9.648;2022-12-19T05:58:13;59.80;;;21.33;;
18072;SDS011;9161;47.348;9.648;2022-12-19T06:02:58;54.40;;;20.27;;
18072;SDS011;9161;47.348;9.648;2022-12-19T06:07:43;53.70;;;20.67;;
18072;SDS011;9161;47.348;9.648;2022-12-19T06:12:27;58.67;;;22.53;;
18072;SDS011;9161;47.348;9.648;2022-12-19T06:17:10;66.67;;;21.63;;
18072;SDS011;9161;47.348;9.648;2022-12-19T06:21:55;63.80;;;22.47;;
18072;SDS011;9161;47.348;9.648;2022-12-19T06:26:39;64.33;;;22.97;;
18072;SDS011;9161;47.348;9.648;2022-12-19T06:31:23;56.00;;;21.73;;
18072;SDS011;9161;47.348;9.648;2022-12-19T06:36:09;56.53;;;21.90;;
18072;SDS011;9161;47.348;9.648;2022-12-19T06:40:56;58.03;;;20.07;;
18072;SDS011;9161;47.348;9.648;2022-12-19T06:45:57;55.33;;;19.53;;
18072;SDS011;9161;47.348;9.648;2022-12-19T06:50:41;50.67;;;18.13;;
18072;SDS011;9161;47.348;9.648;2022-12-19T06:55:24;47.67;;;17.60;;
18072;SDS011;9161;47.348;9.648;2022-12-19T07:00:10;41.67;;;15.50;;
18072;SDS011;9161;47.348;9.648;2022-12-19T07:04:55;45.73;;;16.57;;
18072;SDS011;9161;47.348;9.648;2022-12-19T07:09:44;45.63;;;17.53;;
18072;SDS011;9161;47.348;9.648;2022-12-19T07:14:27;49.77;;;18.20;;
18072;SDS011;9161;47.348;9.648;2022-12-19T07:19:12;45.90;;;16.83;;
18072;SDS011;9161;47.348;9.648;2022-12-19T07:23:56;48.53;;;18.63;;
18072;SDS011;9161;47.348;9.648;2022-12-19T07:28:41;47.00;;;18.03;;
18072;SDS011;9161;47.348;9.648;2022-12-19T07:33:25;43.20;;;17.17;;
18072;SDS011;9161;47.348;9.648;2022-12-19T07:38:10;49.73;;;17.77;;
18072;SDS011;9161;47.348;9.648;2022-12-19T07:42:53;56.57;;;21.00;;
18072;SDS011;9161;47.348;9.648;2022-12-19T07:47:40;50.37;;;19.60;;
18072;SDS011;9161;47.348;9.648;2022-12-19T07:52:25;52.80;;;19.10;;
18072;SDS011;9161;47.348;9.648;2022-12-19T07:57:10;51.83;;;19.70;;
18072;SDS011;9161;47.348;9.648;2022-12-19T08:01:53;47.73;;;19.30;;
18072;SDS011;9161;47.348;9.648;2022-12-19T08:06:37;43.00;;;18.67;;
18072;SDS011;9161;47.348;9.648;2022-12-19T08:11:22;46.00;;;17.70;;
18072;SDS011;9161;47.348;9.648;2022-12-19T08:16:10;38.83;;;16.83;;
18072;SDS011;9161;47.348;9.648;2022-12-19T08:20:54;40.63;;;15.47;;
18072;SDS011;9161;47.348;9.648;2022-12-19T08:25:37;52.47;;;19.47;;
18072;SDS011;9161;47.348;9.648;2022-12-19T08:30:21;47.57;;;20.07;;
18072;SDS011;9161;47.348;9.648;2022-12-19T08:35:09;44.13;;;16.60;;
18072;SDS011;9161;47.348;9.648;2022-12-19T08:39:53;37.27;;;15.80;;
18072;SDS011;9161;47.348;9.648;2022-12-19T08:44:37;43.10;;;16.53;;
18072;SDS011;9161;47.348;9.648;2022-12-19T08:49:21;37.27;;;17.00;;
18072;SDS011;9161;47.348;9.648;2022-12-19T08:54:06;39.47;;;16.00;;
18072;SDS011;9161;47.348;9.648;2022-12-19T08:58:52;48.13;;;19.23;;
18072;SDS011;9161;47.348;9.648;2022-12-19T09:03:36;43.20;;;17.40;;
18072;SDS011;9161;47.348;9.648;2022-12-19T09:08:40;38.37;;;15.97;;
18072;SDS011;9161;47.348;9.648;2022-12-19T09:13:26;37.60;;;16.10;;
18072;SDS011;9161;47.348;9.648;2022-12-19T09:18:10;35.27;;;15.13;;
18072;SDS011;9161;47.348;9.648;2022-12-19T09:22:53;47.97;;;18.13;;
18072;SDS011;9161;47.348;9.648;2022-12-19T09:27:37;45.03;;;18.53;;
18072;SDS011;9161;47.348;9.648;2022-12-19T09:32:42;40.53;;;17.57;;
18072;SDS011;9161;47.348;9.648;2022-12-19T09:37:26;41.87;;;17.83;;
18072;SDS011;9161;47.348;9.648;2022-12-19T09:42:19;43.13;;;22.00;;
18072;SDS011;9161;47.348;9.648;2022-12-19T09:47:22;39.67;;;19.57;;
18072;SDS011;9161;47.348;9.648;2022-12-19T09:52:12;35.23;;;16.67;;
18072;SDS011;9161;47.348;9.648;2022-12-19T09:57:00;35.93;;;15.50;;
18072;SDS011;9161;47.348;9.648;2022-12-19T10:01:48;32.90;;;16.63;;
18072;SDS011;9161;47.348;9.648;2022-12-19T10:06:37;37.53;;;17.20;;
18072;SDS011;9161;47.348;9.648;2022-12-19T10:11:47;37.90;;;17.37;;
18072;SDS011;9161;47.348;9.648;2022-12-19T10:16:59;37.43;;;17.17;;
18072;SDS011;9161;47.348;9.648;2022-12-19T10:22:12;36.17;;;17.13;;
18072;SDS011;9161;47.348;9.648;2022-12-19T10:27:08;33.73;;;16.20;;
18072;SDS011;9161;47.348;9.648;2022-12-19T10:31:58;32.73;;;15.77;;
18072;SDS011;9161;47.348;9.648;2022-12-19T10:36:48;31.77;;;15.37;;
18072;SDS011;9161;47.348;9.648;2022-12-19T10:41:59;37.50;;;16.60;;
18072;SDS011;9161;47.348;9.648;2022-12-19T10:46:49;35.77;;;16.80;;
18072;SDS011;9161;47.348;9.648;2022-12-19T10:51:33;34.33;;;16.13;;
18072;SDS011;9161;47.348;9.648;2022-12-19T10:56:20;34.90;;;16.60;;
18072;SDS011;9161;47.348;9.648;2022-12-19T11:01:10;35.87;;;16.23;;
18072;SDS011;9161;47.348;9.648;2022-12-19T11:05:57;37.57;;;16.97;;
18072;SDS011;9161;47.348;9.648;2022-12-19T11:10:44;42.23;;;17.60;;
18072;SDS011;9161;47.348;9.648;2022-12-19T11:15:53;33.60;;;15.20;;
18072;SDS011;9161;47.348;9.648;2022-12-19T11:21:01;32.87;;;16.00;;
18072;SDS011;9161;47.348;9.648;2022-12-19T11:26:08;32.30;;;16.07;;
18072;SDS011;9161;47.348;9.648;2022-12-19T11:31:29;36.07;;;16.77;;
18072;SDS011;9161;47.348;9.648;2022-12-19T11:36:40;39.33;;;16.97;;
18072;SDS011;9161;47.348;9.648;2022-12-19T11:41:30;41.73;;;18.10;;
18072;SDS011;9161;47.348;9.648;2022-12-19T11:46:28;42.00;;;18.57;;
18072;SDS011;9161;47.348;9.648;2022-12-19T11:51:20;36.23;;;17.73;;
18072;SDS011;9161;47.348;9.648;2022-12-19T11:56:11;42.87;;;18.47;;
18072;SDS011;9161;47.348;9.648;2022-12-19T12:01:01;43.10;;;17.77;;
18072;SDS011;9161;47.348;9.648;2022-12-19T12:05:50;39.37;;;18.77;;
18072;SDS011;9161;47.348;9.648;2022-12-19T12:10:37;38.37;;;18.23;;
18072;SDS011;9161;47.348;9.648;2022-12-19T12:15:52;38.83;;;18.47;;
18072;SDS011;9161;47.348;9.648;2022-12-19T12:21:02;40.47;;;18.50;;
18072;SDS011;9161;47.348;9.648;2022-12-19T12:26:13;41.07;;;20.17;;
18072;SDS011;9161;47.348;9.648;2022-12-19T12:31:28;40.03;;;19.60;;
18072;SDS011;9161;47.348;9.648;2022-12-19T12:36:42;44.13;;;19.60;;
18072;SDS011;9161;47.348;9.648;2022-12-19T12:41:56;38.20;;;18.83;;
18072;SDS011;9161;47.348;9.648;2022-12-19T12:46:49;38.60;;;19.67;;
18072;SDS011;9161;47.348;9.648;2022-12-19T12:51:37;37.33;;;18.40;;
18072;SDS011;9161;47.348;9.648;2022-12-19T12:56:21;37.07;;;17.77;;
18072;SDS011;9161;47.348;9.648;2022-12-19T13:01:06;40.33;;;17.77;;
18072;SDS011;9161;47.348;9.648;2022-12-19T13:06:02;40.67;;;19.80;;
18072;SDS011;9161;47.348;9.648;2022-12-19T13:10:52;42.50;;;17.80;;
18072;SDS011;9161;47.348;9.648;2022-12-19T13:15:38;33.50;;;16.67;;
18072;SDS011;9161;47.348;9.648;2022-12-19T13:30:31;32.93;;;15.70;;
18072;SDS011;9161;47.348;9.648;2022-12-19T13:35:36;39.53;;;16.67;;
18072;SDS011;9161;47.348;9.648;2022-12-19T13:40:51;33.97;;;15.10;;
18072;SDS011;9161;47.348;9.648;2022-12-19T13:45:39;35.83;;;16.33;;
18072;SDS011;9161;47.348;9.648;2022-12-19T13:50:30;37.23;;;17.77;;
18072;SDS011;9161;47.348;9.648;2022-12-19T13:55:18;31.00;;;15.23;;
18072;SDS011;9161;47.348;9.648;2022-12-19T14:00:05;38.00;;;16.70;;
18072;SDS011;9161;47.348;9.648;2022-12-19T14:04:52;34.40;;;16.33;;
18072;SDS011;9161;47.348;9.648;2022-12-19T14:09:36;34.30;;;16.40;;
18072;SDS011;9161;47.348;9.648;2022-12-19T14:14:49;32.33;;;15.57;;
18072;SDS011;9161;47.348;9.648;2022-12-19T14:19:55;37.40;;;16.37;;
18072;SDS011;9161;47.348;9.648;2022-12-19T14:25:00;34.93;;;17.27;;
18072;SDS011;9161;47.348;9.648;2022-12-19T14:30:10;40.43;;;17.63;;
18072;SDS011;9161;47.348;9.648;2022-12-19T14:35:14;34.73;;;16.70;;
18072;SDS011;9161;47.348;9.648;2022-12-19T14:40:21;39.07;;;17.90;;
18072;SDS011;9161;47.348;9.648;2022-12-19T14:50:37;45.97;;;20.00;;
18072;SDS011;9161;47.348;9.648;2022-12-19T14:55:41;42.13;;;19.67;;
18072;SDS011;9161;47.348;9.648;2022-12-19T15:00:47;42.27;;;20.70;;
18072;SDS011;9161;47.348;9.648;2022-12-19T15:05:52;44.40;;;19.10;;
18072;SDS011;9161;47.348;9.648;2022-12-19T15:11:06;42.20;;;19.00;;
18072;SDS011;9161;47.348;9.648;2022-12-19T15:16:43;40.53;;;18.40;;
18072;SDS011;9161;47.348;9.648;2022-12-19T15:21:28;41.37;;;19.17;;
18072;SDS011;9161;47.348;9.648;2022-12-19T15:26:13;35.60;;;16.83;;
18072;SDS011;9161;47.348;9.648;2022-12-19T15:30:59;39.60;;;18.83;;
18072;SDS011;9161;47.348;9.648;2022-12-19T15:35:47;37.03;;;17.53;;
18072;SDS011;9161;47.348;9.648;2022-12-19T15:40:32;42.67;;;18.97;;
18072;SDS011;9161;47.348;9.648;2022-12-19T15:45:16;45.70;;;21.20;;
18072;SDS011;9161;47.348;9.648;2022-12-19T15:50:01;41.20;;;19.80;;
18072;SDS011;9161;47.348;9.648;2022-12-19T15:54:55;43.13;;;19.70;;
18072;SDS011;9161;47.348;9.648;2022-12-19T15:59:41;44.87;;;20.23;;
18072;SDS011;9161;47.348;9.648;2022-12-19T16:04:27;38.10;;;19.87;;
18072;SDS011;9161;47.348;9.648;2022-12-19T16:09:15;47.73;;;20.23;;
18072;SDS011;9161;47.348;9.648;2022-12-19T16:14:02;47.53;;;22.00;;
18072;SDS011;9161;47.348;9.648;2022-12-19T16:18:47;52.93;;;24.53;;
18072;SDS011;9161;47.348;9.648;2022-12-19T16:23:31;48.40;;;22.20;;
18072;SDS011;9161;47.348;9.648;2022-12-19T16:28:16;47.27;;;21.80;;
18072;SDS011;9161;47.348;9.648;2022-12-19T16:33:04;43.20;;;21.07;;
18072;SDS011;9161;47.348;9.648;2022-12-19T16:37:55;41.83;;;18.70;;
18072;SDS011;9161;47.348;9.648;2022-12-19T16:42:39;40.10;;;17.50;;
18072;SDS011;9161;47.348;9.648;2022-12-19T16:47:23;32.43;;;16.13;;
18072;SDS011;9161;47.348;9.648;2022-12-19T16:52:08;45.00;;;19.67;;
18072;SDS011;9161;47.348;9.648;2022-12-19T16:56:53;40.80;;;19.33;;
18072;SDS011;9161;47.348;9.648;2022-12-19T17:01:36;43.57;;;19.43;;
18072;SDS011;9161;47.348;9.648;2022-12-19T17:06:21;38.87;;;18.00;;
18072;SDS011;9161;47.348;9.648;2022-12-19T17:11:10;37.07;;;17.87;;
18072;SDS011;9161;47.348;9.648;2022-12-19T17:15:57;36.07;;;16.17;;
18072;SDS011;9161;47.348;9.648;2022-12-19T17:20:43;43.30;;;19.50;;
18072;SDS011;9161;47.348;9.648;2022-12-19T17:25:28;56.00;;;23.33;;
18072;SDS011;9161;47.348;9.648;2022-12-19T17:30:12;50.07;;;22.10;;
18072;SDS011;9161;47.348;9.648;2022-12-19T17:34:58;49.97;;;23.47;;
18072;SDS011;9161;47.348;9.648;2022-12-19T17:39:41;42.53;;;21.00;;
18072;SDS011;9161;47.348;9.648;2022-12-19T17:44:25;40.83;;;20.57;;
18072;SDS011;9161;47.348;9.648;2022-12-19T17:49:12;40.73;;;20.00;;
18072;SDS011;9161;47.348;9.648;2022-12-19T17:54:00;53.10;;;22.03;;
18072;SDS011;9161;47.348;9.648;2022-12-19T17:58:44;34.67;;;17.00;;
18072;SDS011;9161;47.348;9.648;2022-12-19T18:03:28;39.73;;;16.00;;
18072;SDS011;9161;47.348;9.648;2022-12-19T18:08:22;31.90;;;14.77;;
18072;SDS011;9161;47.348;9.648;2022-12-19T18:13:09;36.47;;;18.07;;
18072;SDS011;9161;47.348;9.648;2022-12-19T18:17:52;30.07;;;15.40;;
18072;SDS011;9161;47.348;9.648;2022-12-19T18:22:37;36.13;;;17.00;;
18072;SDS011;9161;47.348;9.648;2022-12-19T18:27:21;30.50;;;15.77;;
18072;SDS011;9161;47.348;9.648;2022-12-19T18:32:08;29.53;;;14.83;;
18072;SDS011;9161;47.348;9.648;2022-12-19T18:36:59;36.33;;;15.67;;
18072;SDS011;9161;47.348;9.648;2022-12-19T18:41:46;31.10;;;15.90;;
18072;SDS011;9161;47.348;9.648;2022-12-19T18:46:30;29.77;;;14.10;;
18072;SDS011;9161;47.348;9.648;2022-12-19T18:51:18;24.87;;;13.37;;
18072;SDS011;9161;47.348;9.648;2022-12-19T18:56:04;31.50;;;13.87;;
18072;SDS011;9161;47.348;9.648;2022-12-19T19:00:50;30.80;;;14.77;;
18072;SDS011;9161;47.348;9.648;2022-12-19T19:05:40;30.27;;;15.13;;
18072;SDS011;9161;47.348;9.648;2022-12-19T19:10:30;37.67;;;16.13;;
18072;SDS011;9161;47.348;9.648;2022-12-19T19:15:17;31.17;;;14.83;;
18072;SDS011;9161;47.348;9.648;2022-12-19T19:20:01;28.07;;;14.33;;
18072;SDS011;9161;47.348;9.648;2022-12-19T19:24:46;27.83;;;14.03;;
18072;SDS011;9161;47.348;9.648;2022-12-19T19:29:34;31.30;;;14.20;;
18072;SDS011;9161;47.348;9.648;2022-12-19T19:34:20;26.13;;;13.27;;
18072;SDS011;9161;47.348;9.648;2022-12-19T19:39:06;28.83;;;12.87;;
18072;SDS011;9161;47.348;9.648;2022-12-19T19:43:51;30.30;;;12.70;;
18072;SDS011;9161;47.348;9.648;2022-12-19T19:48:36;36.13;;;14.33;;
18072;SDS011;9161;47.348;9.648;2022-12-19T19:53:22;39.60;;;15.20;;
18072;SDS011;9161;47.348;9.648;2022-12-19T19:58:06;27.30;;;12.53;;
18072;SDS011;9161;47.348;9.648;2022-12-19T20:02:51;31.50;;;13.00;;
18072;SDS011;9161;47.348;9.648;2022-12-19T20:07:37;22.97;;;11.60;;
18072;SDS011;9161;47.348;9.648;2022-12-19T20:12:21;20.07;;;10.80;;
18072;SDS011;9161;47.348;9.648;2022-12-19T20:17:05;20.47;;;10.40;;
18072;SDS011;9161;47.348;9.648;2022-12-19T20:21:50;17.70;;;9.20;;
18072;SDS011;9161;47.348;9.648;2022-12-19T20:26:35;19.50;;;9.97;;
18072;SDS011;9161;47.348;9.648;2022-12-19T20:31:20;21.27;;;9.63;;
18072;SDS011;9161;47.348;9.648;2022-12-19T20:36:06;15.67;;;8.47;;
18072;SDS011;9161;47.348;9.648;2022-12-19T20:40:53;15.47;;;8.60;;
18072;SDS011;9161;47.348;9.648;2022-12-19T20:45:38;13.37;;;7.30;;
18072;SDS011;9161;47.348;9.648;2022-12-19T20:50:23;10.73;;;6.23;;
18072;SDS011;9161;47.348;9.648;2022-12-19T20:55:07;11.47;;;6.03;;
18072;SDS011;9161;47.348;9.648;2022-12-19T20:59:52;11.67;;;6.50;;
18072;SDS011;9161;47.348;9.648;2022-12-19T21:04:42;14.20;;;7.03;;
18072;SDS011;9161;47.348;9.648;2022-12-19T21:09:26;12.70;;;7.30;;
18072;SDS011;9161;47.348;9.648;2022-12-19T21:14:11;13.07;;;7.53;;
18072;SDS011;9161;47.348;9.648;2022-12-19T21:18:56;18.93;;;7.93;;
18072;SDS011;9161;47.348;9.648;2022-12-19T21:23:44;14.90;;;7.80;;
18072;SDS011;9161;47.348;9.648;2022-12-19T21:28:32;16.07;;;7.43;;
18072;SDS011;9161;47.348;9.648;2022-12-19T21:33:18;14.47;;;7.27;;
18072;SDS011;9161;47.348;9.648;2022-12-19T21:38:03;17.70;;;8.70;;
18072;SDS011;9161;47.348;9.648;2022-12-19T21:42:49;23.13;;;11.13;;
18072;SDS011;9161;47.348;9.648;2022-12-19T21:47:32;17.43;;;9.37;;
18072;SDS011;9161;47.348;9.648;2022-12-19T21:52:20;18.83;;;8.93;;
18072;SDS011;9161;47.348;9.648;2022-12-19T21:57:03;22.07;;;11.07;;
18072;SDS011;9161;47.348;9.648;2022-12-19T22:01:48;26.77;;;12.27;;
18072;SDS011;9161;47.348;9.648;2022-12-19T22:06:34;28.40;;;13.57;;
18072;SDS011;9161;47.348;9.648;2022-12-19T22:11:19;28.23;;;13.07;;
18072;SDS011;9161;47.348;9.648;2022-12-19T22:16:03;23.67;;;12.23;;
18072;SDS011;9161;47.348;9.648;2022-12-19T22:20:49;27.63;;;13.43;;
18072;SDS011;9161;47.348;9.648;2022-12-19T22:25:32;29.03;;;14.83;;
18072;SDS011;9161;47.348;9.648;2022-12-19T22:30:16;40.40;;;20.10;;
18072;SDS011;9161;47.348;9.648;2022-12-19T22:34:59;37.20;;;18.30;;
18072;SDS011;9161;47.348;9.648;2022-12-19T22:39:44;37.87;;;18.63;;
18072;SDS011;9161;47.348;9.648;2022-12-19T22:44:28;36.90;;;19.00;;
18072;SDS011;9161;47.348;9.648;2022-12-19T22:49:11;43.77;;;20.03;;
18072;SDS011;9161;47.348;9.648;2022-12-19T22:53:55;40.07;;;18.43;;
18072;SDS011;9161;47.348;9.648;2022-12-19T22:58:43;32.97;;;16.30;;
18072;SDS011;9161;47.348;9.648;2022-12-19T23:03:28;38.57;;;18.17;;
18072;SDS011;9161;47.348;9.648;2022-12-19T23:08:12;36.80;;;18.87;;
18072;SDS011;9161;47.348;9.648;2022-12-19T23:12:56;40.57;;;18.37;;
18072;SDS011;9161;47.348;9.648;2022-12-19T23:17:41;39.13;;;19.67;;
18072;SDS011;9161;47.348;9.648;2022-12-19T23:22:24;39.07;;;18.13;;
18072;SDS011;9161;47.348;9.648;2022-12-19T23:27:08;41.40;;;18.13;;
18072;SDS011;9161;47.348;9.648;2022-12-19T23:31:52;31.73;;;16.67;;
18072;SDS011;9161;47.348;9.648;2022-12-19T23:36:37;35.27;;;17.00;;
18072;SDS011;9161;47.348;9.648;2022-12-19T23:41:40;42.40;;;19.13;;
18072;SDS011;9161;47.348;9.648;2022-12-19T23:46:24;35.93;;;16.63;;
18072;SDS011;9161;47.348;9.648;2022-12-19T23:51:10;33.03;;;15.83;;
18072;SDS011;9161;47.348;9.648;2022-12-19T23:55:57;31.87;;;15.83;;
